METAR Data
IDs: Format: Raw Decoded Include TAF

Data at: 1501 UTC 14 Apr 2021

PTYA 141355Z 12010KT 12SM SCT016CB OVC120 26/25 A2963 RMK CB ALQDS SLP034 T02630245